Terminal Aerodrome Forecast
Issued by NWS Amarillo, TX

Home | Current Version | Previous Version | Text Only | Print | Product List | Glossary On
Versions: 1 2 3 4 5 6 7 8 9 10 11 12 13
000
FTUS44 KAMA 031100
TAFGUY
TAF
KGUY 031120Z 0312/0412 22009KT P6SM FEW100 BKN300
     FM031800 19014G21KT P6SM SCT080 SCT300
     FM040000 17012KT P6SM BKN080 OVC300=

USA.gov is the U.S. government's official web portal to all federal, state and local government web resources and services.